• Join FlightAware (Why Join?)
  • Login
  • US Flag 
 
12:30PM EST


 

Airport Tracker/Info


-or-


 

Live Flight TrackerFlight Track Log ✈ AWE3921 ✈ 05-Apr-2013 ✈ KDCA - KCAE

Flight Track Log - Related Links

Times and Time Zones

All times are in EDT time to prevent confusion due to time zone crossing. See the AWE3921 flight status page for this flight to view local times or setup timezone preferences in your user account.

Time Position Orientation Groundspeed Altitude Reporting Facility
EDT Latitude Longitude Course Direction KTS MPH feet Rate Location/Type
02:27PM 38.5968 -77.2661 215° Southwest  Level Estimated
02:28PM 38.5116 -77.3419 215° Southwest  Level Estimated
02:29PM 38.4264 -77.4175 215° Southwest  Level Estimated
02:30PM 38.3412 -77.4929 215° Southwest  Level Estimated
02:31PM 38.2559 -77.5682 215° Southwest  Level Estimated
02:32PM 38.1706 -77.6432 215° Southwest  Level Estimated
02:33PM 38.0852 -77.7181 215° Southwest  Level Estimated
02:34PM 37.9997 -77.7929 215° Southwest  Level Estimated
02:35PM 37.9142 -77.8674 215° Southwest  Level Estimated
02:36PM 37.8287 -77.9418 214° Southwest  Level Estimated
02:37PM 37.7431 -78.0160 214° Southwest  Level Estimated
02:38PM 37.6575 -78.0900 214° Southwest  Level Estimated
02:39PM 37.5718 -78.1639 214° Southwest  Level Estimated
02:40PM 37.4861 -78.2376 214° Southwest  Level Estimated
02:41PM 37.4004 -78.3111 214° Southwest  Level Estimated
02:42PM 37.3146 -78.3844 214° Southwest  Level Estimated
02:43PM 37.2287 -78.4576 214° Southwest  Level Estimated
02:44PM 37.1428 -78.5306 214° Southwest  Level Estimated
02:45PM 37.0569 -78.6035 214° Southwest  Level Estimated
02:46PM 36.9709 -78.6762 214° Southwest  Level Estimated
02:47PM 36.8849 -78.7487 214° Southwest  Level Estimated
02:48PM 36.7988 -78.8211 214° Southwest  Level Estimated
02:49PM 36.7127 -78.8932 214° Southwest  Level Estimated
02:50PM 36.6265 -78.9653 214° Southwest  Level Estimated
02:51PM 36.5403 -79.0372 214° Southwest  Level Estimated
02:52PM 36.4541 -79.1089 214° Southwest  Level Estimated
02:53PM 36.3678 -79.1804 214° Southwest  Level Estimated
02:54PM 36.2814 -79.2518 214° Southwest  Level Estimated
02:55PM 36.1951 -79.3231 214° Southwest  Level Estimated
02:56PM 36.1087 -79.3941 214° Southwest  Level Estimated
02:57PM 36.0222 -79.4651 214° Southwest  Level Estimated
02:58PM 35.9357 -79.5359 214° Southwest  Level Estimated
02:59PM 35.8492 -79.6065 213° Southwest  Level Estimated
03:00PM 35.7626 -79.6769 213° Southwest  Level Estimated
03:01PM 35.6759 -79.7472 213° Southwest  Level Estimated
03:02PM 35.5893 -79.8174 213° Southwest  Level Estimated
03:03PM 35.5026 -79.8874 213° Southwest  Level Estimated
03:04PM 35.4158 -79.9572 213° Southwest  Level Estimated
03:05PM 35.3290 -80.0269 213° Southwest  Level Estimated
03:06PM 35.2422 -80.0965 213° Southwest  Level Estimated
03:07PM 35.1553 -80.1659 213° Southwest  Level Estimated
03:08PM 35.0685 -80.2352 213° Southwest  Level Estimated
03:09PM 34.9815 -80.3043 213° Southwest  Level Estimated
03:10PM 34.8945 -80.3732 213° Southwest  Level Estimated
03:11PM 34.8075 -80.4420 213° Southwest  Level Estimated
03:12PM 34.7205 -80.5107 213° Southwest  Level Estimated
03:13PM 34.6334 -80.5792 213° Southwest  Level Estimated
03:14PM 34.5462 -80.6476 213° Southwest  Level Estimated
03:15PM 34.4590 -80.7159 213° Southwest  Level Estimated
03:16PM 34.3788 -80.7785 213° Southwest  Level Estimated
03:17PM 34.2986 -80.8410 213° Southwest  Level Estimated
03:18PM 34.2184 -80.9033 213° Southwest  Level Estimated
03:19PM 34.1381 -80.9656 213° Southwest  Level Estimated
03:20PM 34.0578 -81.0277 213° Southwest  Level Estimated
03:21PM 33.9775 -81.0897 213° Southwest  Level Estimated
03:22PM 33.9388 -81.1195 213° Southwest  Level Estimated
03:23PM 33.9388 -81.1195 29° Northeast  Level Estimated
03:24PM 33.9388 -81.1195 29° Northeast  Level Estimated
03:25PM 33.9388 -81.1195 29° Northeast  Level Estimated
03:26PM 33.9388 -81.1195 29° Northeast  Level Estimated
03:27PM 33.9388 -81.1195 29° Northeast  Level Estimated
03:28PM 33.9388 -81.1195 29° Northeast  Level Estimated
03:29PM 33.9388 -81.1195 29° Northeast  Level Estimated
03:30PM 33.9388 -81.1195 29° Northeast  Level Estimated
03:31PM 33.9388 -81.1195 29° Northeast  Level Estimated
03:32PM 33.9388 -81.1195 29° Northeast  Level Estimated
03:33PM 33.9388 -81.1195 29° Northeast  Level Estimated
03:34PM 33.9388 -81.1195 29° Northeast  Level Estimated
03:35PM 33.9388 -81.1195 29° Northeast  Level Estimated
03:36PM 33.9388 -81.1195 29° Northeast  Level Estimated